createdAt,value
2019-02-28T00:02:09.531Z,16.63
2019-02-28T00:06:14.642Z,15.60
2019-02-28T00:10:20.016Z,15.30
2019-02-28T00:14:27.747Z,15.40
2019-02-28T00:18:32.015Z,18.37
2019-02-28T00:22:37.417Z,17.50
2019-02-28T00:26:46.252Z,15.63
2019-02-28T00:30:49.516Z,18.53
2019-02-28T00:34:54.618Z,17.43
2019-02-28T00:39:00.075Z,16.30
2019-02-28T00:43:07.450Z,17.17
2019-02-28T00:47:16.459Z,15.83
2019-02-28T00:51:21.589Z,18.23
2019-02-28T00:55:27.769Z,17.77
2019-02-28T00:59:34.321Z,17.63
2019-02-28T01:03:39.553Z,16.40
2019-02-28T01:07:48.136Z,17.77
2019-02-28T01:11:51.385Z,17.67
2019-02-28T01:15:59.439Z,18.47
2019-02-28T01:20:04.884Z,19.00
2019-02-28T01:24:10.044Z,19.27
2019-02-28T01:28:15.231Z,20.33
2019-02-28T01:32:20.351Z,20.03
2019-02-28T01:36:25.547Z,20.50
2019-02-28T01:40:31.145Z,19.70
2019-02-28T01:44:36.539Z,18.83
2019-02-28T01:48:41.801Z,19.57
2019-02-28T01:52:47.033Z,19.37
2019-02-28T01:56:52.169Z,21.43
2019-02-28T02:00:58.081Z,19.57
2019-02-28T02:05:03.351Z,22.00
2019-02-28T02:09:10.981Z,21.17
2019-02-28T02:13:15.649Z,22.50
2019-02-28T02:17:20.723Z,22.47
2019-02-28T02:21:26.210Z,22.27
2019-02-28T02:25:31.347Z,23.70
2019-02-28T02:29:37.109Z,22.93
2019-02-28T02:33:42.253Z,22.67
2019-02-28T02:37:48.518Z,24.23
2019-02-28T02:41:53.564Z,23.97
2019-02-28T02:45:58.669Z,23.17
2019-02-28T02:50:04.065Z,24.30
2019-02-28T02:54:09.172Z,23.40
2019-02-28T02:58:14.389Z,24.50
2019-02-28T03:02:19.538Z,25.40
2019-02-28T03:06:24.735Z,26.60
2019-02-28T03:10:29.818Z,26.43
2019-02-28T03:14:35.352Z,26.47
2019-02-28T03:18:40.487Z,26.70
2019-02-28T03:22:45.664Z,26.57
2019-02-28T03:26:50.874Z,27.40
2019-02-28T03:30:55.987Z,27.33
2019-02-28T03:35:01.174Z,28.73
2019-02-28T03:39:07.671Z,28.50
2019-02-28T03:43:12.878Z,29.27
2019-02-28T03:47:22.755Z,30.40
2019-02-28T03:51:28.338Z,31.17
2019-02-28T03:55:31.785Z,31.90
2019-02-28T03:59:36.999Z,32.60
2019-02-28T04:03:42.111Z,31.17
2019-02-28T04:07:52.701Z,30.90
2019-02-28T04:11:54.985Z,32.73
2019-02-28T04:16:08.435Z,35.23
2019-02-28T04:20:08.084Z,33.57
2019-02-28T04:24:14.125Z,34.40
2019-02-28T04:28:19.282Z,37.57
2019-02-28T04:32:27.630Z,35.37
2019-02-28T04:36:35.485Z,37.13
2019-02-28T04:40:38.233Z,36.53
2019-02-28T04:44:43.316Z,36.03
2019-02-28T04:48:49.163Z,36.63
2019-02-28T04:52:54.251Z,35.07
2019-02-28T04:56:59.426Z,37.33
2019-02-28T05:01:04.528Z,35.73
2019-02-28T05:05:12.820Z,35.97
2019-02-28T05:09:16.642Z,35.33
2019-02-28T05:13:21.744Z,36.67
2019-02-28T05:17:26.861Z,34.07
2019-02-28T05:21:32.072Z,34.90
2019-02-28T05:25:37.264Z,36.63
2019-02-28T05:29:43.928Z,34.70
2019-02-28T05:33:49.336Z,34.27
2019-02-28T05:37:54.425Z,32.93
2019-02-28T05:41:59.662Z,33.90
2019-02-28T05:46:05.046Z,34.70
2019-02-28T05:50:15.218Z,32.40
2019-02-28T05:54:17.302Z,33.83
2019-02-28T05:58:22.414Z,34.10
2019-02-28T06:02:27.571Z,32.03
2019-02-28T06:06:33.081Z,32.27
2019-02-28T06:10:38.225Z,32.40
2019-02-28T06:14:43.341Z,33.15
2019-02-28T06:18:48.722Z,33.10
2019-02-28T06:22:53.917Z,32.43
2019-02-28T06:26:59.017Z,32.17
2019-02-28T06:31:04.476Z,32.80
2019-02-28T06:35:09.598Z,31.07
2019-02-28T06:39:14.778Z,30.40
2019-02-28T06:43:19.929Z,31.67
2019-02-28T06:47:25.100Z,30.90
2019-02-28T06:51:30.236Z,30.00
2019-02-28T06:55:36.953Z,31.63
2019-02-28T06:59:42.168Z,29.97
2019-02-28T07:03:53.431Z,28.10
2019-02-28T07:07:54.218Z,30.13
2019-02-28T07:11:59.380Z,28.67
2019-02-28T07:16:04.471Z,29.67
2019-02-28T07:20:11.603Z,31.13
2019-02-28T07:24:16.996Z,28.77
2019-02-28T07:28:22.240Z,27.97
2019-02-28T07:32:27.359Z,29.13
2019-02-28T07:36:32.529Z,28.12
2019-02-28T07:40:37.920Z,29.17
2019-02-28T07:44:43.126Z,27.57
2019-02-28T07:48:48.242Z,28.67
2019-02-28T07:52:53.441Z,28.50
2019-02-28T07:56:58.582Z,27.60
2019-02-28T08:01:03.697Z,27.57
2019-02-28T08:05:09.133Z,27.80
2019-02-28T08:09:27.799Z,27.57
2019-02-28T08:13:34.637Z,28.30
2019-02-28T08:17:40.660Z,28.80
2019-02-28T08:21:50.278Z,26.80
2019-02-28T08:25:53.618Z,27.43
2019-02-28T08:29:58.730Z,26.93
2019-02-28T08:34:03.816Z,27.57
2019-02-28T08:38:08.894Z,27.87
2019-02-28T08:42:13.960Z,26.33
2019-02-28T08:46:19.160Z,24.93
2019-02-28T08:50:24.354Z,25.80
2019-02-28T08:54:29.468Z,25.10
2019-02-28T08:58:37.620Z,25.13
2019-02-28T09:02:41.510Z,24.43
2019-02-28T09:06:46.636Z,25.17
2019-02-28T09:10:51.798Z,21.87
2019-02-28T09:14:56.879Z,23.37
2019-02-28T09:19:01.976Z,25.03
2019-02-28T09:23:07.082Z,24.83
2019-02-28T09:27:12.342Z,24.93
2019-02-28T09:31:17.443Z,24.53
2019-02-28T09:35:22.803Z,25.80
2019-02-28T09:39:27.943Z,24.03
2019-02-28T09:43:33.165Z,24.33
2019-02-28T09:47:38.509Z,24.07
2019-02-28T09:51:44.551Z,25.63
2019-02-28T09:55:49.567Z,24.90
2019-02-28T09:59:54.749Z,26.17
2019-02-28T10:03:59.965Z,24.97
2019-02-28T10:08:07.051Z,25.10
2019-02-28T10:12:12.331Z,25.90
2019-02-28T10:16:17.690Z,26.20
2019-02-28T10:20:27.068Z,27.50
2019-02-28T10:24:32.485Z,27.47
2019-02-28T10:28:37.578Z,27.83
2019-02-28T10:32:43.381Z,28.27
2019-02-28T10:36:50.050Z,27.87
2019-02-28T10:40:55.139Z,28.03
2019-02-28T10:45:00.273Z,28.07
2019-02-28T10:49:05.460Z,27.93
2019-02-28T10:53:10.623Z,27.47
2019-02-28T10:57:15.936Z,27.73
2019-02-28T11:01:21.229Z,28.43
2019-02-28T11:05:28.842Z,28.43
2019-02-28T11:09:33.961Z,28.90
2019-02-28T11:13:39.096Z,28.97
2019-02-28T11:17:44.693Z,28.30
2019-02-28T11:21:49.799Z,29.13
2019-02-28T11:25:56.099Z,29.50
2019-02-28T11:30:01.194Z,28.07
2019-02-28T11:34:06.423Z,28.00
2019-02-28T11:38:11.887Z,27.63
2019-02-28T11:42:17.048Z,27.80
2019-02-28T11:46:22.178Z,28.07
2019-02-28T11:50:27.389Z,28.80
2019-02-28T11:54:32.913Z,25.80
2019-02-28T11:58:38.089Z,27.20
2019-02-28T12:02:43.176Z,27.53
2019-02-28T12:06:50.300Z,26.50
2019-02-28T12:10:58.319Z,28.93
2019-02-28T12:15:02.786Z,29.53
2019-02-28T12:19:09.026Z,31.07
2019-02-28T12:23:14.228Z,34.50
2019-02-28T12:27:19.333Z,40.37
2019-02-28T12:31:24.471Z,42.10
2019-02-28T12:35:37.409Z,42.33
2019-02-28T12:39:37.689Z,41.67
2019-02-28T12:43:42.767Z,43.83
2019-02-28T12:47:47.961Z,42.20
2019-02-28T12:51:53.314Z,43.20
2019-02-28T12:55:58.460Z,41.37
2019-02-28T13:00:03.789Z,42.07
2019-02-28T13:04:09.269Z,43.60
2019-02-28T13:08:15.391Z,42.50
2019-02-28T13:12:20.758Z,38.40
2019-02-28T13:16:25.927Z,39.97
2019-02-28T13:20:33.509Z,35.10
2019-02-28T13:24:38.078Z,36.07
2019-02-28T13:28:43.153Z,33.73
2019-02-28T13:32:48.446Z,33.13
2019-02-28T13:36:54.336Z,31.97
2019-02-28T13:41:00.502Z,30.93
2019-02-28T13:45:13.388Z,29.30
2019-02-28T13:49:15.471Z,29.20
2019-02-28T13:53:19.654Z,26.50
2019-02-28T13:57:24.835Z,27.67
2019-02-28T14:01:29.951Z,25.53
2019-02-28T14:05:40.823Z,24.13
2019-02-28T14:09:42.235Z,23.85
2019-02-28T14:13:47.315Z,22.77
2019-02-28T14:17:52.557Z,21.17
2019-02-28T14:21:57.856Z,21.80
2019-02-28T14:26:03.204Z,20.63
2019-02-28T14:30:11.265Z,20.90
2019-02-28T14:34:17.672Z,18.90
2019-02-28T14:38:22.782Z,18.53
2019-02-28T14:42:27.919Z,17.60
2019-02-28T14:46:34.711Z,16.93
2019-02-28T14:50:40.155Z,15.97
2019-02-28T14:54:45.262Z,14.37
2019-02-28T14:58:50.442Z,13.87
2019-02-28T15:02:55.582Z,14.00
2019-02-28T15:07:03.123Z,12.70
2019-02-28T15:11:10.180Z,23.87
2019-02-28T15:15:18.037Z,17.60
2019-02-28T15:19:24.415Z,12.07
2019-02-28T15:23:30.943Z,11.83
2019-02-28T15:27:39.049Z,10.47
2019-02-28T15:31:44.272Z,9.33
2019-02-28T15:35:49.899Z,9.23
2019-02-28T15:39:55.591Z,8.93
2019-02-28T15:44:00.678Z,8.63
2019-02-28T15:48:05.945Z,9.50
2019-02-28T15:52:11.107Z,8.90
2019-02-28T15:56:19.621Z,9.73
2019-02-28T16:00:25.206Z,9.27
2019-02-28T16:04:30.328Z,8.60
2019-02-28T16:08:35.486Z,8.60
2019-02-28T16:12:40.642Z,8.50
2019-02-28T16:16:45.800Z,8.53
2019-02-28T16:20:51.047Z,8.13
2019-02-28T16:24:56.134Z,7.80
2019-02-28T16:29:04.301Z,8.20
2019-02-28T16:33:11.592Z,7.70
2019-02-28T16:37:16.711Z,7.07
2019-02-28T16:41:21.813Z,7.77
2019-02-28T16:45:47.676Z,6.20
2019-02-28T16:49:52.730Z,6.97
2019-02-28T16:53:58.018Z,6.63
2019-02-28T16:58:04.369Z,7.57
2019-02-28T17:02:09.464Z,7.93
2019-02-28T17:06:14.607Z,7.50
2019-02-28T17:10:21.238Z,7.40
2019-02-28T17:14:26.592Z,6.93
2019-02-28T17:18:32.701Z,7.97
2019-02-28T17:22:37.833Z,8.47
2019-02-28T17:26:58.810Z,7.97
2019-02-28T17:31:24.461Z,8.10
2019-02-28T17:35:30.674Z,7.80
2019-02-28T17:39:36.429Z,7.60
2019-02-28T17:43:41.949Z,8.00
2019-02-28T17:48:36.212Z,8.10
2019-02-28T17:53:03.471Z,8.17
2019-02-28T17:57:45.065Z,7.57
2019-02-28T18:02:21.508Z,6.60
2019-02-28T18:07:16.693Z,6.50
2019-02-28T18:11:48.681Z,6.60
2019-02-28T18:16:34.991Z,5.15
2019-02-28T18:21:06.663Z,4.97
2019-02-28T18:26:13.862Z,5.00
2019-02-28T18:30:47.949Z,4.73
2019-02-28T18:34:56.256Z,5.43
2019-02-28T18:38:59.915Z,5.67
2019-02-28T18:43:05.158Z,5.70
2019-02-28T18:47:10.404Z,6.62
2019-02-28T18:51:16.787Z,7.43
2019-02-28T18:55:21.944Z,8.23
2019-02-28T18:59:27.082Z,9.50
2019-02-28T19:03:32.430Z,10.57
2019-02-28T19:07:37.814Z,12.13
2019-02-28T19:11:42.913Z,11.93
2019-02-28T19:15:48.090Z,12.67
2019-02-28T19:19:53.177Z,13.60
2019-02-28T19:23:58.358Z,13.27
2019-02-28T19:28:03.506Z,12.50
2019-02-28T19:32:08.631Z,12.90
2019-02-28T19:36:13.851Z,12.20
2019-02-28T19:40:19.192Z,10.80
2019-02-28T19:44:24.341Z,10.70
2019-02-28T19:48:29.468Z,8.37
2019-02-28T19:52:34.605Z,7.87
2019-02-28T19:56:39.804Z,8.30
2019-02-28T20:00:45.502Z,7.53
2019-02-28T20:04:50.577Z,6.53
2019-02-28T20:08:55.738Z,6.33
2019-02-28T20:13:00.856Z,6.03
2019-02-28T20:17:05.944Z,6.43
2019-02-28T20:21:11.023Z,6.57
2019-02-28T20:25:16.779Z,8.87
2019-02-28T20:29:21.888Z,8.70
2019-02-28T20:33:26.971Z,11.40
2019-02-28T20:37:32.149Z,12.73
2019-02-28T20:41:37.555Z,13.93
2019-02-28T20:45:43.979Z,14.63
2019-02-28T20:49:51.213Z,17.03
2019-02-28T20:53:56.947Z,15.80
2019-02-28T20:58:02.325Z,15.10
2019-02-28T21:02:07.509Z,16.07
2019-02-28T21:06:12.613Z,17.13
2019-02-28T21:10:18.084Z,16.10
2019-02-28T21:14:23.120Z,14.90
2019-02-28T21:18:28.290Z,14.87
2019-02-28T21:22:33.448Z,13.97
2019-02-28T21:26:38.603Z,13.60
2019-02-28T21:30:43.739Z,13.20
2019-02-28T21:34:49.291Z,13.50
2019-02-28T21:38:54.374Z,13.30
2019-02-28T21:42:59.738Z,12.57
2019-02-28T21:47:04.923Z,12.60
2019-02-28T21:51:10.150Z,12.67
2019-02-28T21:55:15.421Z,12.03
2019-02-28T21:59:20.572Z,11.60
2019-02-28T22:03:25.773Z,11.73
2019-02-28T22:07:30.875Z,11.00
2019-02-28T22:11:36.032Z,10.27
2019-02-28T22:15:41.175Z,9.10
2019-02-28T22:19:46.220Z,7.83
2019-02-28T22:23:51.330Z,7.33
2019-02-28T22:27:56.542Z,8.00
2019-02-28T22:32:24.135Z,8.40
2019-02-28T22:36:33.496Z,9.37
2019-02-28T22:40:38.594Z,9.90
2019-02-28T22:44:43.708Z,10.03
2019-02-28T22:48:48.786Z,9.20
2019-02-28T22:52:55.132Z,9.67
2019-02-28T22:57:00.741Z,8.43
2019-02-28T23:01:12.199Z,9.10
2019-02-28T23:05:17.460Z,7.77
2019-02-28T23:09:22.607Z,7.70
2019-02-28T23:13:27.809Z,7.20
2019-02-28T23:17:32.905Z,7.60
2019-02-28T23:21:38.021Z,7.00
2019-02-28T23:25:43.169Z,7.00
2019-02-28T23:29:59.586Z,6.90
2019-02-28T23:34:12.436Z,7.00
2019-02-28T23:38:17.646Z,7.77
2019-02-28T23:42:22.712Z,7.50
2019-02-28T23:46:27.842Z,7.87
2019-02-28T23:50:32.916Z,7.07
2019-02-28T23:54:38.122Z,6.97
2019-02-28T23:58:43.287Z,7.13
